sensor_id;sensor_type;location;lat;lon;timestamp;P1;durP1;ratioP1;P2;durP2;ratioP2
5129;SDS011;2583;50.946;6.954;2023-08-20T00:01:04;11.40;;;10.40;;
5129;SDS011;2583;50.946;6.954;2023-08-20T00:03:31;12.47;;;11.30;;
5129;SDS011;2583;50.946;6.954;2023-08-20T00:05:58;11.80;;;10.60;;
5129;SDS011;2583;50.946;6.954;2023-08-20T00:08:25;10.60;;;9.60;;
5129;SDS011;2583;50.946;6.954;2023-08-20T00:10:52;11.37;;;10.30;;
5129;SDS011;2583;50.946;6.954;2023-08-20T00:13:19;11.53;;;10.40;;
5129;SDS011;2583;50.946;6.954;2023-08-20T00:15:46;11.37;;;10.47;;
5129;SDS011;2583;50.946;6.954;2023-08-20T00:18:13;11.37;;;10.50;;
5129;SDS011;2583;50.946;6.954;2023-08-20T00:20:40;10.50;;;9.63;;
5129;SDS011;2583;50.946;6.954;2023-08-20T00:23:07;11.20;;;10.20;;
5129;SDS011;2583;50.946;6.954;2023-08-20T00:25:35;11.33;;;10.60;;
5129;SDS011;2583;50.946;6.954;2023-08-20T00:28:02;10.63;;;9.60;;
5129;SDS011;2583;50.946;6.954;2023-08-20T00:30:28;11.90;;;11.00;;
5129;SDS011;2583;50.946;6.954;2023-08-20T00:32:55;11.63;;;10.77;;
5129;SDS011;2583;50.946;6.954;2023-08-20T00:35:22;10.67;;;9.93;;
5129;SDS011;2583;50.946;6.954;2023-08-20T00:37:49;10.07;;;9.40;;
5129;SDS011;2583;50.946;6.954;2023-08-20T00:40:16;12.03;;;11.10;;
5129;SDS011;2583;50.946;6.954;2023-08-20T00:42:43;11.33;;;10.33;;
5129;SDS011;2583;50.946;6.954;2023-08-20T00:45:09;11.60;;;10.40;;
5129;SDS011;2583;50.946;6.954;2023-08-20T00:47:36;12.27;;;11.10;;
5129;SDS011;2583;50.946;6.954;2023-08-20T00:50:04;11.83;;;10.40;;
5129;SDS011;2583;50.946;6.954;2023-08-20T00:52:35;10.77;;;9.67;;
5129;SDS011;2583;50.946;6.954;2023-08-20T00:55:04;11.20;;;10.30;;
5129;SDS011;2583;50.946;6.954;2023-08-20T00:57:37;11.83;;;10.73;;
5129;SDS011;2583;50.946;6.954;2023-08-20T01:00:05;10.67;;;9.87;;
5129;SDS011;2583;50.946;6.954;2023-08-20T01:02:36;11.50;;;10.60;;
5129;SDS011;2583;50.946;6.954;2023-08-20T01:05:04;11.50;;;10.60;;
5129;SDS011;2583;50.946;6.954;2023-08-20T01:07:43;12.63;;;11.53;;
5129;SDS011;2583;50.946;6.954;2023-08-20T01:10:24;12.63;;;11.47;;
5129;SDS011;2583;50.946;6.954;2023-08-20T01:13:04;12.50;;;11.50;;
5129;SDS011;2583;50.946;6.954;2023-08-20T01:15:33;12.70;;;11.40;;
5129;SDS011;2583;50.946;6.954;2023-08-20T01:18:00;12.43;;;11.17;;
5129;SDS011;2583;50.946;6.954;2023-08-20T01:20:28;13.13;;;11.83;;
5129;SDS011;2583;50.946;6.954;2023-08-20T01:23:04;11.97;;;11.00;;
5129;SDS011;2583;50.946;6.954;2023-08-20T01:25:59;14.20;;;12.60;;
5129;SDS011;2583;50.946;6.954;2023-08-20T01:28:47;11.57;;;10.63;;
5129;SDS011;2583;50.946;6.954;2023-08-20T01:31:15;13.63;;;11.47;;
5129;SDS011;2583;50.946;6.954;2023-08-20T01:33:42;12.37;;;11.30;;
5129;SDS011;2583;50.946;6.954;2023-08-20T01:36:09;13.00;;;11.90;;
5129;SDS011;2583;50.946;6.954;2023-08-20T01:38:36;12.70;;;11.40;;
5129;SDS011;2583;50.946;6.954;2023-08-20T01:41:04;11.83;;;11.00;;
5129;SDS011;2583;50.946;6.954;2023-08-20T01:43:31;13.40;;;12.10;;
5129;SDS011;2583;50.946;6.954;2023-08-20T01:45:58;13.23;;;12.03;;
5129;SDS011;2583;50.946;6.954;2023-08-20T01:48:25;13.27;;;12.07;;
5129;SDS011;2583;50.946;6.954;2023-08-20T01:50:52;14.27;;;12.70;;
5129;SDS011;2583;50.946;6.954;2023-08-20T01:53:18;25.30;;;12.27;;
5129;SDS011;2583;50.946;6.954;2023-08-20T01:55:46;11.70;;;10.90;;
5129;SDS011;2583;50.946;6.954;2023-08-20T01:58:13;11.60;;;10.57;;
5129;SDS011;2583;50.946;6.954;2023-08-20T02:00:40;12.30;;;11.30;;
5129;SDS011;2583;50.946;6.954;2023-08-20T02:03:06;12.60;;;11.67;;
5129;SDS011;2583;50.946;6.954;2023-08-20T02:05:33;12.60;;;11.70;;
5129;SDS011;2583;50.946;6.954;2023-08-20T02:08:00;11.10;;;10.27;;
5129;SDS011;2583;50.946;6.954;2023-08-20T02:10:27;18.90;;;16.13;;
5129;SDS011;2583;50.946;6.954;2023-08-20T02:12:54;19.53;;;17.57;;
5129;SDS011;2583;50.946;6.954;2023-08-20T02:15:20;18.70;;;16.90;;
5129;SDS011;2583;50.946;6.954;2023-08-20T02:17:47;18.53;;;16.20;;
5129;SDS011;2583;50.946;6.954;2023-08-20T02:20:14;19.07;;;16.80;;
5129;SDS011;2583;50.946;6.954;2023-08-20T02:22:41;18.07;;;16.37;;
5129;SDS011;2583;50.946;6.954;2023-08-20T02:25:08;17.20;;;15.57;;
5129;SDS011;2583;50.946;6.954;2023-08-20T02:27:35;17.37;;;15.77;;
5129;SDS011;2583;50.946;6.954;2023-08-20T02:30:02;17.47;;;15.97;;
5129;SDS011;2583;50.946;6.954;2023-08-20T02:32:29;17.43;;;15.60;;
5129;SDS011;2583;50.946;6.954;2023-08-20T02:34:58;16.03;;;14.43;;
5129;SDS011;2583;50.946;6.954;2023-08-20T02:37:25;16.27;;;14.80;;
5129;SDS011;2583;50.946;6.954;2023-08-20T02:39:51;16.47;;;14.67;;
5129;SDS011;2583;50.946;6.954;2023-08-20T02:42:18;17.80;;;16.17;;
5129;SDS011;2583;50.946;6.954;2023-08-20T02:44:45;17.30;;;15.80;;
5129;SDS011;2583;50.946;6.954;2023-08-20T02:47:12;17.47;;;15.83;;
5129;SDS011;2583;50.946;6.954;2023-08-20T02:49:38;21.40;;;18.03;;
5129;SDS011;2583;50.946;6.954;2023-08-20T02:52:05;17.23;;;15.27;;
5129;SDS011;2583;50.946;6.954;2023-08-20T02:54:32;17.13;;;15.47;;
5129;SDS011;2583;50.946;6.954;2023-08-20T02:56:59;15.07;;;13.87;;
5129;SDS011;2583;50.946;6.954;2023-08-20T02:59:25;15.37;;;13.80;;
5129;SDS011;2583;50.946;6.954;2023-08-20T03:01:52;15.23;;;13.50;;
5129;SDS011;2583;50.946;6.954;2023-08-20T03:04:19;13.27;;;11.90;;
5129;SDS011;2583;50.946;6.954;2023-08-20T03:06:46;15.30;;;14.00;;
5129;SDS011;2583;50.946;6.954;2023-08-20T03:09:13;14.67;;;13.37;;
5129;SDS011;2583;50.946;6.954;2023-08-20T03:11:39;16.00;;;14.50;;
5129;SDS011;2583;50.946;6.954;2023-08-20T03:14:06;16.40;;;14.80;;
5129;SDS011;2583;50.946;6.954;2023-08-20T03:16:33;15.90;;;14.40;;
5129;SDS011;2583;50.946;6.954;2023-08-20T03:19:00;15.33;;;13.77;;
5129;SDS011;2583;50.946;6.954;2023-08-20T03:21:26;16.70;;;15.10;;
5129;SDS011;2583;50.946;6.954;2023-08-20T03:23:53;16.20;;;13.80;;
5129;SDS011;2583;50.946;6.954;2023-08-20T03:26:20;16.60;;;14.87;;
5129;SDS011;2583;50.946;6.954;2023-08-20T03:28:47;19.20;;;15.67;;
5129;SDS011;2583;50.946;6.954;2023-08-20T03:31:13;17.37;;;14.53;;
5129;SDS011;2583;50.946;6.954;2023-08-20T03:33:40;15.47;;;13.97;;
5129;SDS011;2583;50.946;6.954;2023-08-20T03:36:07;14.87;;;13.67;;
5129;SDS011;2583;50.946;6.954;2023-08-20T03:38:34;16.30;;;14.80;;
5129;SDS011;2583;50.946;6.954;2023-08-20T03:41:00;15.10;;;13.60;;
5129;SDS011;2583;50.946;6.954;2023-08-20T03:43:27;14.97;;;13.57;;
5129;SDS011;2583;50.946;6.954;2023-08-20T03:45:54;16.00;;;14.40;;
5129;SDS011;2583;50.946;6.954;2023-08-20T03:48:21;15.17;;;13.73;;
5129;SDS011;2583;50.946;6.954;2023-08-20T03:50:48;16.17;;;14.77;;
5129;SDS011;2583;50.946;6.954;2023-08-20T03:53:15;18.93;;;17.30;;
5129;SDS011;2583;50.946;6.954;2023-08-20T03:55:41;16.17;;;14.63;;
5129;SDS011;2583;50.946;6.954;2023-08-20T03:58:14;21.97;;;16.43;;
5129;SDS011;2583;50.946;6.954;2023-08-20T04:00:41;18.83;;;16.97;;
5129;SDS011;2583;50.946;6.954;2023-08-20T04:03:08;17.90;;;16.10;;
5129;SDS011;2583;50.946;6.954;2023-08-20T04:05:35;19.77;;;17.27;;
5129;SDS011;2583;50.946;6.954;2023-08-20T04:08:05;18.00;;;16.47;;
5129;SDS011;2583;50.946;6.954;2023-08-20T04:10:33;19.07;;;17.07;;
5129;SDS011;2583;50.946;6.954;2023-08-20T04:12:59;18.80;;;16.40;;
5129;SDS011;2583;50.946;6.954;2023-08-20T04:15:26;19.73;;;17.73;;
5129;SDS011;2583;50.946;6.954;2023-08-20T04:17:53;21.13;;;18.77;;
5129;SDS011;2583;50.946;6.954;2023-08-20T04:20:20;25.87;;;21.10;;
5129;SDS011;2583;50.946;6.954;2023-08-20T04:22:47;20.47;;;18.40;;
5129;SDS011;2583;50.946;6.954;2023-08-20T04:25:15;23.43;;;20.20;;
5129;SDS011;2583;50.946;6.954;2023-08-20T04:27:41;26.60;;;19.57;;
5129;SDS011;2583;50.946;6.954;2023-08-20T04:30:08;23.43;;;19.77;;
5129;SDS011;2583;50.946;6.954;2023-08-20T04:32:36;19.97;;;18.00;;
5129;SDS011;2583;50.946;6.954;2023-08-20T04:35:02;21.43;;;18.93;;
5129;SDS011;2583;50.946;6.954;2023-08-20T04:37:29;23.60;;;19.93;;
5129;SDS011;2583;50.946;6.954;2023-08-20T04:39:58;23.13;;;20.73;;
5129;SDS011;2583;50.946;6.954;2023-08-20T04:42:25;22.43;;;20.10;;
5129;SDS011;2583;50.946;6.954;2023-08-20T04:44:52;25.43;;;19.90;;
5129;SDS011;2583;50.946;6.954;2023-08-20T04:47:19;27.03;;;20.47;;
5129;SDS011;2583;50.946;6.954;2023-08-20T04:49:45;24.03;;;20.50;;
5129;SDS011;2583;50.946;6.954;2023-08-20T04:52:12;23.00;;;18.43;;
5129;SDS011;2583;50.946;6.954;2023-08-20T04:54:39;21.57;;;19.27;;
5129;SDS011;2583;50.946;6.954;2023-08-20T04:57:05;25.83;;;20.23;;
5129;SDS011;2583;50.946;6.954;2023-08-20T04:59:32;23.57;;;20.80;;
5129;SDS011;2583;50.946;6.954;2023-08-20T05:01:59;24.70;;;21.37;;
5129;SDS011;2583;50.946;6.954;2023-08-20T05:04:26;25.90;;;20.73;;
5129;SDS011;2583;50.946;6.954;2023-08-20T05:06:53;23.20;;;20.80;;
5129;SDS011;2583;50.946;6.954;2023-08-20T05:09:20;22.50;;;19.67;;
5129;SDS011;2583;50.946;6.954;2023-08-20T05:11:47;27.43;;;20.67;;
5129;SDS011;2583;50.946;6.954;2023-08-20T05:14:15;24.40;;;21.83;;
5129;SDS011;2583;50.946;6.954;2023-08-20T05:16:41;25.10;;;20.43;;
5129;SDS011;2583;50.946;6.954;2023-08-20T05:19:08;25.87;;;20.10;;
5129;SDS011;2583;50.946;6.954;2023-08-20T05:21:35;23.77;;;21.27;;
5129;SDS011;2583;50.946;6.954;2023-08-20T05:24:02;27.03;;;20.23;;
5129;SDS011;2583;50.946;6.954;2023-08-20T05:26:29;22.40;;;19.90;;
5129;SDS011;2583;50.946;6.954;2023-08-20T05:28:56;29.00;;;19.57;;
5129;SDS011;2583;50.946;6.954;2023-08-20T05:31:23;21.60;;;18.83;;
5129;SDS011;2583;50.946;6.954;2023-08-20T05:33:50;24.70;;;19.40;;
5129;SDS011;2583;50.946;6.954;2023-08-20T05:36:16;20.27;;;18.13;;
5129;SDS011;2583;50.946;6.954;2023-08-20T05:38:43;20.10;;;17.97;;
5129;SDS011;2583;50.946;6.954;2023-08-20T05:41:10;23.47;;;17.53;;
5129;SDS011;2583;50.946;6.954;2023-08-20T05:43:37;26.63;;;20.10;;
5129;SDS011;2583;50.946;6.954;2023-08-20T05:46:03;20.60;;;18.40;;
5129;SDS011;2583;50.946;6.954;2023-08-20T05:48:30;20.87;;;18.67;;
5129;SDS011;2583;50.946;6.954;2023-08-20T05:50:57;24.07;;;18.90;;
5129;SDS011;2583;50.946;6.954;2023-08-20T05:53:24;28.10;;;18.60;;
5129;SDS011;2583;50.946;6.954;2023-08-20T05:55:51;20.37;;;17.33;;
5129;SDS011;2583;50.946;6.954;2023-08-20T05:58:18;20.10;;;18.00;;
5129;SDS011;2583;50.946;6.954;2023-08-20T06:00:44;19.70;;;17.70;;
5129;SDS011;2583;50.946;6.954;2023-08-20T06:03:11;21.40;;;18.20;;
5129;SDS011;2583;50.946;6.954;2023-08-20T06:05:38;20.50;;;18.43;;
5129;SDS011;2583;50.946;6.954;2023-08-20T06:08:04;19.53;;;17.47;;
5129;SDS011;2583;50.946;6.954;2023-08-20T06:10:32;19.30;;;17.30;;
5129;SDS011;2583;50.946;6.954;2023-08-20T06:12:59;19.20;;;17.27;;
5129;SDS011;2583;50.946;6.954;2023-08-20T06:15:26;21.70;;;18.57;;
5129;SDS011;2583;50.946;6.954;2023-08-20T06:17:52;19.47;;;17.57;;
5129;SDS011;2583;50.946;6.954;2023-08-20T06:20:19;20.87;;;17.67;;
5129;SDS011;2583;50.946;6.954;2023-08-20T06:22:46;19.70;;;16.00;;
5129;SDS011;2583;50.946;6.954;2023-08-20T06:25:13;18.37;;;16.60;;
5129;SDS011;2583;50.946;6.954;2023-08-20T06:27:40;19.43;;;16.57;;
5129;SDS011;2583;50.946;6.954;2023-08-20T06:30:08;17.70;;;16.00;;
5129;SDS011;2583;50.946;6.954;2023-08-20T06:32:35;21.73;;;16.67;;
5129;SDS011;2583;50.946;6.954;2023-08-20T06:35:02;18.40;;;16.70;;
5129;SDS011;2583;50.946;6.954;2023-08-20T06:37:29;17.73;;;16.10;;
5129;SDS011;2583;50.946;6.954;2023-08-20T06:39:56;22.37;;;20.17;;
5129;SDS011;2583;50.946;6.954;2023-08-20T06:42:23;16.93;;;15.40;;
5129;SDS011;2583;50.946;6.954;2023-08-20T06:44:50;18.17;;;16.57;;
5129;SDS011;2583;50.946;6.954;2023-08-20T06:47:16;16.00;;;14.70;;
5129;SDS011;2583;50.946;6.954;2023-08-20T06:49:43;17.00;;;15.10;;
5129;SDS011;2583;50.946;6.954;2023-08-20T06:52:10;15.60;;;14.00;;
5129;SDS011;2583;50.946;6.954;2023-08-20T06:54:37;16.90;;;15.17;;
5129;SDS011;2583;50.946;6.954;2023-08-20T06:57:03;15.37;;;13.70;;
5129;SDS011;2583;50.946;6.954;2023-08-20T06:59:30;15.67;;;14.20;;
5129;SDS011;2583;50.946;6.954;2023-08-20T07:01:57;15.97;;;14.57;;
5129;SDS011;2583;50.946;6.954;2023-08-20T07:04:24;14.87;;;13.57;;
5129;SDS011;2583;50.946;6.954;2023-08-20T07:06:51;15.70;;;14.20;;
5129;SDS011;2583;50.946;6.954;2023-08-20T07:09:18;15.90;;;14.30;;
5129;SDS011;2583;50.946;6.954;2023-08-20T07:11:44;14.87;;;13.77;;
5129;SDS011;2583;50.946;6.954;2023-08-20T07:14:14;15.50;;;14.00;;
5129;SDS011;2583;50.946;6.954;2023-08-20T07:16:41;17.10;;;15.10;;
5129;SDS011;2583;50.946;6.954;2023-08-20T07:19:08;16.53;;;14.90;;
5129;SDS011;2583;50.946;6.954;2023-08-20T07:21:35;17.60;;;16.07;;
5129;SDS011;2583;50.946;6.954;2023-08-20T07:24:01;16.27;;;14.70;;
5129;SDS011;2583;50.946;6.954;2023-08-20T07:26:29;17.17;;;15.53;;
5129;SDS011;2583;50.946;6.954;2023-08-20T07:28:56;17.50;;;15.90;;
5129;SDS011;2583;50.946;6.954;2023-08-20T07:33:50;15.07;;;13.53;;
5129;SDS011;2583;50.946;6.954;2023-08-20T07:36:18;17.67;;;15.80;;
5129;SDS011;2583;50.946;6.954;2023-08-20T07:38:48;16.17;;;14.23;;
5129;SDS011;2583;50.946;6.954;2023-08-20T07:41:15;17.63;;;14.70;;
5129;SDS011;2583;50.946;6.954;2023-08-20T07:43:42;18.00;;;14.27;;
5129;SDS011;2583;50.946;6.954;2023-08-20T07:46:09;14.80;;;13.20;;
5129;SDS011;2583;50.946;6.954;2023-08-20T07:48:37;14.33;;;13.00;;
5129;SDS011;2583;50.946;6.954;2023-08-20T07:51:05;16.87;;;15.13;;
5129;SDS011;2583;50.946;6.954;2023-08-20T07:53:32;14.57;;;13.20;;
5129;SDS011;2583;50.946;6.954;2023-08-20T07:56:00;14.50;;;13.30;;
5129;SDS011;2583;50.946;6.954;2023-08-20T07:58:27;19.17;;;14.27;;
5129;SDS011;2583;50.946;6.954;2023-08-20T08:00:56;19.40;;;13.37;;
5129;SDS011;2583;50.946;6.954;2023-08-20T08:03:26;13.00;;;12.00;;
5129;SDS011;2583;50.946;6.954;2023-08-20T08:05:54;14.77;;;13.33;;
5129;SDS011;2583;50.946;6.954;2023-08-20T08:08:21;13.20;;;12.10;;
5129;SDS011;2583;50.946;6.954;2023-08-20T08:10:48;15.00;;;13.80;;
5129;SDS011;2583;50.946;6.954;2023-08-20T08:13:17;14.20;;;12.93;;
5129;SDS011;2583;50.946;6.954;2023-08-20T08:15:46;14.33;;;12.93;;
5129;SDS011;2583;50.946;6.954;2023-08-20T08:18:13;21.17;;;15.70;;
5129;SDS011;2583;50.946;6.954;2023-08-20T08:20:40;14.20;;;12.80;;
5129;SDS011;2583;50.946;6.954;2023-08-20T08:23:07;14.07;;;12.60;;
5129;SDS011;2583;50.946;6.954;2023-08-20T08:25:34;12.13;;;11.23;;
5129;SDS011;2583;50.946;6.954;2023-08-20T08:28:01;12.40;;;11.43;;
5129;SDS011;2583;50.946;6.954;2023-08-20T08:30:28;12.50;;;11.30;;
5129;SDS011;2583;50.946;6.954;2023-08-20T08:32:55;11.73;;;10.37;;
5129;SDS011;2583;50.946;6.954;2023-08-20T08:35:22;11.43;;;10.23;;
5129;SDS011;2583;50.946;6.954;2023-08-20T08:37:49;11.57;;;10.47;;
5129;SDS011;2583;50.946;6.954;2023-08-20T08:40:16;14.67;;;11.30;;
5129;SDS011;2583;50.946;6.954;2023-08-20T08:42:46;11.57;;;10.40;;
5129;SDS011;2583;50.946;6.954;2023-08-20T08:45:18;11.37;;;10.47;;
5129;SDS011;2583;50.946;6.954;2023-08-20T08:47:46;12.50;;;11.50;;
5129;SDS011;2583;50.946;6.954;2023-08-20T08:50:15;11.87;;;10.67;;
5129;SDS011;2583;50.946;6.954;2023-08-20T08:52:42;11.90;;;10.80;;
5129;SDS011;2583;50.946;6.954;2023-08-20T08:55:11;11.77;;;10.70;;
5129;SDS011;2583;50.946;6.954;2023-08-20T08:57:37;11.63;;;10.67;;
5129;SDS011;2583;50.946;6.954;2023-08-20T09:00:04;10.77;;;9.97;;
5129;SDS011;2583;50.946;6.954;2023-08-20T09:02:32;10.87;;;10.10;;
5129;SDS011;2583;50.946;6.954;2023-08-20T09:04:58;11.30;;;10.40;;
5129;SDS011;2583;50.946;6.954;2023-08-20T09:07:25;10.43;;;9.53;;
5129;SDS011;2583;50.946;6.954;2023-08-20T09:09:56;14.23;;;9.87;;
5129;SDS011;2583;50.946;6.954;2023-08-20T09:12:27;10.77;;;9.87;;
5129;SDS011;2583;50.946;6.954;2023-08-20T09:14:55;11.50;;;10.40;;
5129;SDS011;2583;50.946;6.954;2023-08-20T09:17:27;10.83;;;9.83;;
5129;SDS011;2583;50.946;6.954;2023-08-20T09:19:55;9.77;;;8.90;;
5129;SDS011;2583;50.946;6.954;2023-08-20T09:22:23;7.70;;;7.10;;
5129;SDS011;2583;50.946;6.954;2023-08-20T09:24:54;12.30;;;8.83;;
5129;SDS011;2583;50.946;6.954;2023-08-20T09:27:23;8.53;;;7.83;;
5129;SDS011;2583;50.946;6.954;2023-08-20T09:29:51;9.13;;;7.50;;
5129;SDS011;2583;50.946;6.954;2023-08-20T09:32:20;8.97;;;8.07;;
5129;SDS011;2583;50.946;6.954;2023-08-20T09:34:48;7.87;;;7.20;;
5129;SDS011;2583;50.946;6.954;2023-08-20T09:37:17;8.00;;;7.37;;
5129;SDS011;2583;50.946;6.954;2023-08-20T09:39:45;9.73;;;8.63;;
5129;SDS011;2583;50.946;6.954;2023-08-20T09:42:13;9.53;;;8.63;;
5129;SDS011;2583;50.946;6.954;2023-08-20T09:44:43;10.00;;;9.10;;
5129;SDS011;2583;50.946;6.954;2023-08-20T09:47:15;10.80;;;9.90;;
5129;SDS011;2583;50.946;6.954;2023-08-20T09:49:46;11.27;;;10.27;;
5129;SDS011;2583;50.946;6.954;2023-08-20T09:55:30;10.00;;;9.10;;
5129;SDS011;2583;50.946;6.954;2023-08-20T09:58:02;10.77;;;9.97;;
5129;SDS011;2583;50.946;6.954;2023-08-20T10:00:30;11.03;;;10.00;;
5129;SDS011;2583;50.946;6.954;2023-08-20T10:02:57;10.80;;;10.00;;
5129;SDS011;2583;50.946;6.954;2023-08-20T10:05:25;10.53;;;9.67;;
5129;SDS011;2583;50.946;6.954;2023-08-20T10:07:53;11.70;;;10.77;;
5129;SDS011;2583;50.946;6.954;2023-08-20T10:10:21;10.87;;;9.97;;
5129;SDS011;2583;50.946;6.954;2023-08-20T10:12:48;11.83;;;10.10;;
5129;SDS011;2583;50.946;6.954;2023-08-20T10:15:15;11.67;;;10.77;;
5129;SDS011;2583;50.946;6.954;2023-08-20T10:17:43;11.93;;;11.07;;
5129;SDS011;2583;50.946;6.954;2023-08-20T10:20:13;10.60;;;9.80;;
5129;SDS011;2583;50.946;6.954;2023-08-20T10:22:44;12.20;;;11.10;;
5129;SDS011;2583;50.946;6.954;2023-08-20T10:25:16;10.77;;;9.73;;
5129;SDS011;2583;50.946;6.954;2023-08-20T10:27:49;9.90;;;9.13;;
5129;SDS011;2583;50.946;6.954;2023-08-20T10:30:16;9.97;;;9.03;;
5129;SDS011;2583;50.946;6.954;2023-08-20T10:32:48;10.20;;;9.50;;
5129;SDS011;2583;50.946;6.954;2023-08-20T10:35:17;11.03;;;9.90;;
5129;SDS011;2583;50.946;6.954;2023-08-20T10:46:06;11.33;;;10.43;;
5129;SDS011;2583;50.946;6.954;2023-08-20T10:48:39;9.77;;;8.83;;
5129;SDS011;2583;50.946;6.954;2023-08-20T10:51:16;9.00;;;8.40;;
5129;SDS011;2583;50.946;6.954;2023-08-20T10:53:45;10.63;;;9.80;;
5129;SDS011;2583;50.946;6.954;2023-08-20T10:56:46;10.17;;;9.27;;
5129;SDS011;2583;50.946;6.954;2023-08-20T11:01:53;9.33;;;8.57;;
5129;SDS011;2583;50.946;6.954;2023-08-20T11:04:22;9.90;;;9.20;;
5129;SDS011;2583;50.946;6.954;2023-08-20T11:06:54;8.67;;;7.97;;
5129;SDS011;2583;50.946;6.954;2023-08-20T11:09:23;9.70;;;9.03;;
5129;SDS011;2583;50.946;6.954;2023-08-20T11:11:51;9.90;;;9.20;;
5129;SDS011;2583;50.946;6.954;2023-08-20T11:14:19;9.50;;;8.60;;
5129;SDS011;2583;50.946;6.954;2023-08-20T11:16:47;9.47;;;8.77;;
5129;SDS011;2583;50.946;6.954;2023-08-20T11:19:19;9.30;;;8.60;;
5129;SDS011;2583;50.946;6.954;2023-08-20T11:21:46;7.90;;;7.40;;
5129;SDS011;2583;50.946;6.954;2023-08-20T11:24:14;9.37;;;8.73;;
5129;SDS011;2583;50.946;6.954;2023-08-20T11:26:41;9.17;;;8.37;;
5129;SDS011;2583;50.946;6.954;2023-08-20T11:29:09;9.37;;;8.87;;
5129;SDS011;2583;50.946;6.954;2023-08-20T11:31:38;9.57;;;8.83;;
5129;SDS011;2583;50.946;6.954;2023-08-20T11:34:06;8.70;;;8.07;;
5129;SDS011;2583;50.946;6.954;2023-08-20T11:36:34;8.10;;;7.60;;
5129;SDS011;2583;50.946;6.954;2023-08-20T11:39:02;9.07;;;8.47;;
5129;SDS011;2583;50.946;6.954;2023-08-20T11:41:29;8.60;;;8.10;;
5129;SDS011;2583;50.946;6.954;2023-08-20T11:43:55;9.20;;;8.30;;
5129;SDS011;2583;50.946;6.954;2023-08-20T11:46:23;9.07;;;8.27;;
5129;SDS011;2583;50.946;6.954;2023-08-20T11:49:00;9.00;;;8.30;;
5129;SDS011;2583;50.946;6.954;2023-08-20T11:51:27;7.93;;;7.50;;
5129;SDS011;2583;50.946;6.954;2023-08-20T11:53:54;8.40;;;7.90;;
5129;SDS011;2583;50.946;6.954;2023-08-20T11:56:21;9.30;;;8.70;;
5129;SDS011;2583;50.946;6.954;2023-08-20T11:58:51;7.67;;;7.13;;
5129;SDS011;2583;50.946;6.954;2023-08-20T12:01:18;6.60;;;6.20;;
5129;SDS011;2583;50.946;6.954;2023-08-20T12:03:46;6.10;;;5.80;;
5129;SDS011;2583;50.946;6.954;2023-08-20T12:06:19;6.13;;;5.73;;
5129;SDS011;2583;50.946;6.954;2023-08-20T12:08:48;5.87;;;5.47;;
5129;SDS011;2583;50.946;6.954;2023-08-20T12:11:15;6.83;;;6.40;;
5129;SDS011;2583;50.946;6.954;2023-08-20T12:13:42;6.10;;;5.70;;
5129;SDS011;2583;50.946;6.954;2023-08-20T12:16:09;8.03;;;7.47;;
5129;SDS011;2583;50.946;6.954;2023-08-20T12:18:36;6.57;;;6.07;;
5129;SDS011;2583;50.946;6.954;2023-08-20T12:21:03;6.20;;;5.80;;
5129;SDS011;2583;50.946;6.954;2023-08-20T12:23:29;5.53;;;5.20;;
5129;SDS011;2583;50.946;6.954;2023-08-20T12:25:56;5.77;;;5.30;;
5129;SDS011;2583;50.946;6.954;2023-08-20T12:28:23;6.03;;;5.43;;
5129;SDS011;2583;50.946;6.954;2023-08-20T12:30:52;6.00;;;5.35;;
5129;SDS011;2583;50.946;6.954;2023-08-20T12:33:19;5.32;;;5.03;;
5129;SDS011;2583;50.946;6.954;2023-08-20T12:35:47;6.28;;;5.78;;
5129;SDS011;2583;50.946;6.954;2023-08-20T12:38:14;5.40;;;5.10;;
5129;SDS011;2583;50.946;6.954;2023-08-20T12:40:41;6.45;;;6.13;;
5129;SDS011;2583;50.946;6.954;2023-08-20T12:43:08;7.03;;;5.05;;
5129;SDS011;2583;50.946;6.954;2023-08-20T12:45:35;4.60;;;4.30;;
5129;SDS011;2583;50.946;6.954;2023-08-20T12:48:02;5.20;;;4.90;;
5129;SDS011;2583;50.946;6.954;2023-08-20T12:50:29;5.18;;;4.88;;
5129;SDS011;2583;50.946;6.954;2023-08-20T12:52:57;5.30;;;4.93;;
5129;SDS011;2583;50.946;6.954;2023-08-20T12:55:23;5.07;;;4.63;;
5129;SDS011;2583;50.946;6.954;2023-08-20T12:57:54;5.55;;;5.15;;
5129;SDS011;2583;50.946;6.954;2023-08-20T13:00:23;4.72;;;4.40;;
5129;SDS011;2583;50.946;6.954;2023-08-20T13:02:52;5.50;;;5.10;;
5129;SDS011;2583;50.946;6.954;2023-08-20T13:05:20;5.20;;;4.85;;
5129;SDS011;2583;50.946;6.954;2023-08-20T13:07:48;4.82;;;4.38;;
5129;SDS011;2583;50.946;6.954;2023-08-20T13:10:15;5.10;;;4.80;;
5129;SDS011;2583;50.946;6.954;2023-08-20T13:12:44;5.05;;;4.65;;
5129;SDS011;2583;50.946;6.954;2023-08-20T13:15:18;4.78;;;4.47;;
5129;SDS011;2583;50.946;6.954;2023-08-20T13:17:48;5.15;;;4.75;;
5129;SDS011;2583;50.946;6.954;2023-08-20T13:20:15;4.93;;;4.60;;
5129;SDS011;2583;50.946;6.954;2023-08-20T13:22:48;4.50;;;4.20;;
5129;SDS011;2583;50.946;6.954;2023-08-20T13:25:15;5.97;;;5.63;;
5129;SDS011;2583;50.946;6.954;2023-08-20T13:27:42;4.45;;;4.25;;
5129;SDS011;2583;50.946;6.954;2023-08-20T13:30:10;5.47;;;4.97;;
5129;SDS011;2583;50.946;6.954;2023-08-20T13:32:37;5.15;;;4.80;;
5129;SDS011;2583;50.946;6.954;2023-08-20T13:35:05;5.05;;;4.68;;
5129;SDS011;2583;50.946;6.954;2023-08-20T13:37:34;4.80;;;4.50;;
5129;SDS011;2583;50.946;6.954;2023-08-20T13:40:01;4.60;;;4.28;;
5129;SDS011;2583;50.946;6.954;2023-08-20T13:42:30;4.43;;;4.13;;
5129;SDS011;2583;50.946;6.954;2023-08-20T13:44:56;4.93;;;4.50;;
5129;SDS011;2583;50.946;6.954;2023-08-20T13:47:23;4.53;;;4.13;;
5129;SDS011;2583;50.946;6.954;2023-08-20T13:49:50;5.97;;;5.38;;
5129;SDS011;2583;50.946;6.954;2023-08-20T13:52:17;4.50;;;4.20;;
5129;SDS011;2583;50.946;6.954;2023-08-20T13:54:44;5.30;;;4.30;;
5129;SDS011;2583;50.946;6.954;2023-08-20T13:57:11;4.63;;;4.32;;
5129;SDS011;2583;50.946;6.954;2023-08-20T13:59:37;4.53;;;4.07;;
5129;SDS011;2583;50.946;6.954;2023-08-20T14:02:05;5.32;;;4.30;;
5129;SDS011;2583;50.946;6.954;2023-08-20T14:04:32;4.85;;;4.47;;
5129;SDS011;2583;50.946;6.954;2023-08-20T14:06:58;4.05;;;3.75;;
5129;SDS011;2583;50.946;6.954;2023-08-20T14:09:25;4.80;;;4.50;;
5129;SDS011;2583;50.946;6.954;2023-08-20T14:11:52;4.30;;;3.90;;
5129;SDS011;2583;50.946;6.954;2023-08-20T14:14:19;6.57;;;6.28;;
5129;SDS011;2583;50.946;6.954;2023-08-20T14:16:46;5.93;;;5.43;;
5129;SDS011;2583;50.946;6.954;2023-08-20T14:19:13;4.70;;;4.40;;
5129;SDS011;2583;50.946;6.954;2023-08-20T14:21:39;6.80;;;4.72;;
5129;SDS011;2583;50.946;6.954;2023-08-20T14:24:06;4.65;;;4.25;;
5129;SDS011;2583;50.946;6.954;2023-08-20T14:26:33;5.47;;;5.00;;
5129;SDS011;2583;50.946;6.954;2023-08-20T14:29:00;4.93;;;4.53;;
5129;SDS011;2583;50.946;6.954;2023-08-20T14:31:27;4.07;;;3.88;;
5129;SDS011;2583;50.946;6.954;2023-08-20T14:33:54;5.00;;;4.55;;
5129;SDS011;2583;50.946;6.954;2023-08-20T14:36:21;4.95;;;4.40;;
5129;SDS011;2583;50.946;6.954;2023-08-20T14:38:48;4.57;;;4.28;;
5129;SDS011;2583;50.946;6.954;2023-08-20T14:41:15;4.97;;;4.47;;
5129;SDS011;2583;50.946;6.954;2023-08-20T14:43:42;4.72;;;4.32;;
5129;SDS011;2583;50.946;6.954;2023-08-20T14:46:09;4.97;;;4.67;;
5129;SDS011;2583;50.946;6.954;2023-08-20T14:48:36;5.72;;;4.57;;
5129;SDS011;2583;50.946;6.954;2023-08-20T14:51:07;4.50;;;4.20;;
5129;SDS011;2583;50.946;6.954;2023-08-20T14:53:34;4.87;;;4.47;;
5129;SDS011;2583;50.946;6.954;2023-08-20T14:56:01;5.53;;;5.10;;
5129;SDS011;2583;50.946;6.954;2023-08-20T14:58:29;5.30;;;4.93;;
5129;SDS011;2583;50.946;6.954;2023-08-20T15:00:58;4.90;;;4.60;;
5129;SDS011;2583;50.946;6.954;2023-08-20T15:03:25;4.73;;;4.33;;
5129;SDS011;2583;50.946;6.954;2023-08-20T15:05:52;4.50;;;4.20;;
5129;SDS011;2583;50.946;6.954;2023-08-20T15:08:19;4.47;;;4.17;;
5129;SDS011;2583;50.946;6.954;2023-08-20T15:11:03;5.50;;;5.10;;
5129;SDS011;2583;50.946;6.954;2023-08-20T15:13:30;4.80;;;4.50;;
5129;SDS011;2583;50.946;6.954;2023-08-20T15:15:58;5.57;;;5.17;;
5129;SDS011;2583;50.946;6.954;2023-08-20T15:18:25;5.73;;;5.27;;